sensor_id;sensor_type;location;lat;lon;timestamp;pressure;altitude;pressure_sealevel;temperature;humidity
17438;BME280;73152;52.198;5.422;2023-11-22T00:01:50;102650.84;;;20.61;50.24
17438;BME280;73152;52.198;5.422;2023-11-22T00:04:22;102653.69;;;20.60;50.62
17438;BME280;73152;52.198;5.422;2023-11-22T00:06:51;102661.63;;;20.61;50.32
17438;BME280;73152;52.198;5.422;2023-11-22T00:09:19;102646.31;;;20.62;50.37
17438;BME280;73152;52.198;5.422;2023-11-22T00:11:49;102656.25;;;20.61;50.25
17438;BME280;73152;52.198;5.422;2023-11-22T00:14:18;102653.69;;;20.60;50.19
17438;BME280;73152;52.198;5.422;2023-11-22T00:16:47;102675.94;;;20.62;50.14
17438;BME280;73152;52.198;5.422;2023-11-22T00:19:16;102681.50;;;20.60;50.47
17438;BME280;73152;52.198;5.422;2023-11-22T00:21:50;102690.56;;;20.59;50.53
17438;BME280;73152;52.198;5.422;2023-11-22T00:24:19;102685.19;;;20.59;50.72
17438;BME280;73152;52.198;5.422;2023-11-22T00:26:48;102687.88;;;20.59;50.39
17438;BME280;73152;52.198;5.422;2023-11-22T00:29:17;102682.47;;;20.59;50.29
17438;BME280;73152;52.198;5.422;2023-11-22T00:31:45;102688.84;;;20.58;50.61
17438;BME280;73152;52.198;5.422;2023-11-22T00:34:14;102688.84;;;20.58;50.69
17438;BME280;73152;52.198;5.422;2023-11-22T00:36:43;102689.72;;;20.59;50.25
17438;BME280;73152;52.198;5.422;2023-11-22T00:39:15;102687.88;;;20.59;50.30
17438;BME280;73152;52.198;5.422;2023-11-22T00:41:44;102673.53;;;20.59;50.63
17438;BME280;73152;52.198;5.422;2023-11-22T00:44:13;102675.53;;;20.57;50.48
17438;BME280;73152;52.198;5.422;2023-11-22T00:46:42;102678.41;;;20.55;50.68
17438;BME280;73152;52.198;5.422;2023-11-22T00:49:11;102674.56;;;20.58;50.23
17438;BME280;73152;52.198;5.422;2023-11-22T00:51:40;102681.78;;;20.57;50.36
17438;BME280;73152;52.198;5.422;2023-11-22T00:54:09;102673.72;;;20.57;50.46
17438;BME280;73152;52.198;5.422;2023-11-22T00:56:40;102679.25;;;20.56;50.16
17438;BME280;73152;52.198;5.422;2023-11-22T00:59:09;102679.38;;;20.54;50.61
17438;BME280;73152;52.198;5.422;2023-11-22T01:01:38;102677.72;;;20.53;50.23
17438;BME280;73152;52.198;5.422;2023-11-22T01:04:07;102696.25;;;20.56;50.51
17438;BME280;73152;52.198;5.422;2023-11-22T01:06:36;102707.34;;;20.53;50.55
17438;BME280;73152;52.198;5.422;2023-11-22T01:09:06;102704.50;;;20.55;50.30
17438;BME280;73152;52.198;5.422;2023-11-22T01:11:44;102719.94;;;20.53;50.41
17438;BME280;73152;52.198;5.422;2023-11-22T01:14:13;102734.28;;;20.53;50.16
17438;BME280;73152;52.198;5.422;2023-11-22T01:16:42;102746.72;;;20.54;50.48
17438;BME280;73152;52.198;5.422;2023-11-22T01:19:10;102753.13;;;20.53;50.42
17438;BME280;73152;52.198;5.422;2023-11-22T01:21:40;102745.19;;;20.52;50.16
17438;BME280;73152;52.198;5.422;2023-11-22T01:24:11;102749.72;;;20.51;50.32
17438;BME280;73152;52.198;5.422;2023-11-22T01:26:42;102749.72;;;20.51;50.27
17438;BME280;73152;52.198;5.422;2023-11-22T01:29:11;102751.59;;;20.51;50.49
17438;BME280;73152;52.198;5.422;2023-11-22T01:31:40;102747.34;;;20.48;50.21
17438;BME280;73152;52.198;5.422;2023-11-22T01:34:10;102760.66;;;20.50;50.20
17438;BME280;73152;52.198;5.422;2023-11-22T01:36:42;102758.97;;;20.49;50.24
17438;BME280;73152;52.198;5.422;2023-11-22T01:39:12;102758.97;;;20.49;50.34
17438;BME280;73152;52.198;5.422;2023-11-22T01:41:47;102763.50;;;20.48;50.21
17438;BME280;73152;52.198;5.422;2023-11-22T01:44:16;102756.41;;;20.47;50.16
17438;BME280;73152;52.198;5.422;2023-11-22T01:46:46;102744.94;;;20.45;50.34
17438;BME280;73152;52.198;5.422;2023-11-22T01:49:15;102743.94;;;20.46;50.17
17438;BME280;73152;52.198;5.422;2023-11-22T01:51:44;102742.22;;;20.45;50.50
17438;BME280;73152;52.198;5.422;2023-11-22T01:54:13;102748.47;;;20.46;50.17
17438;BME280;73152;52.198;5.422;2023-11-22T01:56:46;102745.94;;;20.44;50.42
17438;BME280;73152;52.198;5.422;2023-11-22T01:59:15;102742.22;;;20.45;50.21
17438;BME280;73152;52.198;5.422;2023-11-22T02:01:45;102751.31;;;20.44;50.47
17438;BME280;73152;52.198;5.422;2023-11-22T02:04:14;102751.31;;;20.44;50.53
17438;BME280;73152;52.198;5.422;2023-11-22T02:06:42;102759.41;;;20.44;50.45
17438;BME280;73152;52.198;5.422;2023-11-22T02:09:11;102751.47;;;20.43;50.08
17438;BME280;73152;52.198;5.422;2023-11-22T02:11:41;102763.09;;;20.43;50.16
17438;BME280;73152;52.198;5.422;2023-11-22T02:14:14;102755.84;;;20.44;50.12
17438;BME280;73152;52.198;5.422;2023-11-22T02:16:43;102746.94;;;20.43;50.46
17438;BME280;73152;52.198;5.422;2023-11-22T02:19:16;102746.22;;;20.41;50.08
17438;BME280;73152;52.198;5.422;2023-11-22T02:21:45;102766.75;;;20.42;50.46
17438;BME280;73152;52.198;5.422;2023-11-22T02:24:17;102758.69;;;20.42;50.14
17438;BME280;73152;52.198;5.422;2023-11-22T02:26:46;102748.91;;;20.41;50.15
17438;BME280;73152;52.198;5.422;2023-11-22T02:29:14;102757.00;;;20.41;50.02
17438;BME280;73152;52.198;5.422;2023-11-22T02:31:44;102757.13;;;20.40;50.47
17438;BME280;73152;52.198;5.422;2023-11-22T02:34:13;102757.13;;;20.40;50.23
17438;BME280;73152;52.198;5.422;2023-11-22T02:36:42;102745.38;;;20.41;50.28
17438;BME280;73152;52.198;5.422;2023-11-22T02:39:12;102745.38;;;20.41;50.42
17438;BME280;73152;52.198;5.422;2023-11-22T02:41:44;102750.91;;;20.39;50.17
17438;BME280;73152;52.198;5.422;2023-11-22T02:44:14;102737.44;;;20.39;50.23
17438;BME280;73152;52.198;5.422;2023-11-22T02:46:43;102742.84;;;20.39;50.07
17438;BME280;73152;52.198;5.422;2023-11-22T02:49:11;102735.75;;;20.38;50.27
17438;BME280;73152;52.198;5.422;2023-11-22T02:51:41;102740.16;;;20.39;49.95
17438;BME280;73152;52.198;5.422;2023-11-22T02:54:09;102744.84;;;20.37;50.33
17438;BME280;73152;52.198;5.422;2023-11-22T02:56:38;102739.28;;;20.39;50.21
17438;BME280;73152;52.198;5.422;2023-11-22T02:59:09;102730.34;;;20.38;50.08
17438;BME280;73152;52.198;5.422;2023-11-22T03:01:39;102729.66;;;20.36;49.98
17438;BME280;73152;52.198;5.422;2023-11-22T03:04:08;102735.91;;;20.37;50.36
17438;BME280;73152;52.198;5.422;2023-11-22T03:06:37;102733.19;;;20.37;50.32
17438;BME280;73152;52.198;5.422;2023-11-22T03:09:06;102736.03;;;20.35;49.94
17438;BME280;73152;52.198;5.422;2023-11-22T03:11:35;102743.28;;;20.35;50.23
17438;BME280;73152;52.198;5.422;2023-11-22T03:14:04;102751.66;;;20.32;50.36
17438;BME280;73152;52.198;5.422;2023-11-22T03:16:39;102754.06;;;20.35;50.34
17438;BME280;73152;52.198;5.422;2023-11-22T03:19:08;102761.28;;;20.34;49.94
17438;BME280;73152;52.198;5.422;2023-11-22T03:21:39;102763.13;;;20.34;50.07
17438;BME280;73152;52.198;5.422;2023-11-22T03:24:10;102768.66;;;20.32;50.10
17438;BME280;73152;52.198;5.422;2023-11-22T03:26:41;102771.19;;;20.34;49.95
17438;BME280;73152;52.198;5.422;2023-11-22T03:29:11;102774.91;;;20.33;50.01
17438;BME280;73152;52.198;5.422;2023-11-22T03:31:44;102784.81;;;20.32;49.92
17438;BME280;73152;52.198;5.422;2023-11-22T03:34:14;102795.59;;;20.32;50.21
17438;BME280;73152;52.198;5.422;2023-11-22T03:36:44;102797.25;;;20.33;49.83
17438;BME280;73152;52.198;5.422;2023-11-22T03:39:13;102806.34;;;20.32;49.86
17438;BME280;73152;52.198;5.422;2023-11-22T03:41:43;102811.75;;;20.32;50.23
17438;BME280;73152;52.198;5.422;2023-11-22T03:44:12;102820.81;;;20.31;49.84
17438;BME280;73152;52.198;5.422;2023-11-22T03:46:40;102814.56;;;20.31;49.88
17438;BME280;73152;52.198;5.422;2023-11-22T03:49:12;102812.72;;;20.31;50.21
17438;BME280;73152;52.198;5.422;2023-11-22T03:51:42;102819.94;;;20.31;50.20
17438;BME280;73152;52.198;5.422;2023-11-22T03:54:12;102825.31;;;20.31;50.13
17438;BME280;73152;52.198;5.422;2023-11-22T03:56:40;102828.19;;;20.29;50.19
17438;BME280;73152;52.198;5.422;2023-11-22T03:59:10;102823.06;;;20.26;49.93
17438;BME280;73152;52.198;5.422;2023-11-22T04:01:38;102825.47;;;20.29;50.00
17438;BME280;73152;52.198;5.422;2023-11-22T04:04:07;102846.88;;;20.31;49.75
17438;BME280;73152;52.198;5.422;2023-11-22T04:06:39;102846.06;;;20.30;50.00
17438;BME280;73152;52.198;5.422;2023-11-22T04:09:07;102851.44;;;20.30;49.81
17438;BME280;73152;52.198;5.422;2023-11-22T04:11:38;102856.94;;;20.29;49.88
17438;BME280;73152;52.198;5.422;2023-11-22T04:14:07;102861.34;;;20.30;50.07
17438;BME280;73152;52.198;5.422;2023-11-22T04:16:35;102861.34;;;20.30;50.14
17438;BME280;73152;52.198;5.422;2023-11-22T04:19:04;102847.03;;;20.29;50.15
17438;BME280;73152;52.198;5.422;2023-11-22T04:21:33;102850.56;;;20.30;50.11
17438;BME280;73152;52.198;5.422;2023-11-22T04:24:07;102855.97;;;20.30;49.88
17438;BME280;73152;52.198;5.422;2023-11-22T04:26:38;102855.09;;;20.29;49.89
17438;BME280;73152;52.198;5.422;2023-11-22T04:29:07;102859.50;;;20.30;49.82
17438;BME280;73152;52.198;5.422;2023-11-22T04:31:36;102861.47;;;20.28;49.66
17438;BME280;73152;52.198;5.422;2023-11-22T04:34:05;102864.03;;;20.30;49.67
17438;BME280;73152;52.198;5.422;2023-11-22T04:36:33;102864.03;;;20.30;50.00
17438;BME280;73152;52.198;5.422;2023-11-22T04:39:05;102863.19;;;20.29;49.63
17438;BME280;73152;52.198;5.422;2023-11-22T04:41:36;102876.66;;;20.29;49.76
17438;BME280;73152;52.198;5.422;2023-11-22T04:44:05;102873.09;;;20.29;49.76
17438;BME280;73152;52.198;5.422;2023-11-22T04:46:34;102873.09;;;20.29;49.60
17438;BME280;73152;52.198;5.422;2023-11-22T04:49:03;102870.41;;;20.29;50.00
17438;BME280;73152;52.198;5.422;2023-11-22T04:51:33;102864.16;;;20.28;49.64
17438;BME280;73152;52.198;5.422;2023-11-22T04:54:05;102856.25;;;20.27;49.85
17438;BME280;73152;52.198;5.422;2023-11-22T04:56:33;102867.00;;;20.27;49.62
17438;BME280;73152;52.198;5.422;2023-11-22T04:59:02;102864.16;;;20.28;49.55
17438;BME280;73152;52.198;5.422;2023-11-22T05:01:32;102856.09;;;20.28;49.82
17438;BME280;73152;52.198;5.422;2023-11-22T05:04:01;102851.72;;;20.27;49.63
17438;BME280;73152;52.198;5.422;2023-11-22T05:06:30;102858.78;;;20.28;49.90
17438;BME280;73152;52.198;5.422;2023-11-22T05:08:59;102850.69;;;20.28;49.79
17438;BME280;73152;52.198;5.422;2023-11-22T05:11:30;102857.09;;;20.27;49.71
17438;BME280;73152;52.198;5.422;2023-11-22T05:13:59;102849.03;;;20.27;49.71
17438;BME280;73152;52.198;5.422;2023-11-22T05:16:28;102851.88;;;20.26;49.48
17438;BME280;73152;52.198;5.422;2023-11-22T05:18:57;102852.69;;;20.26;49.75
17438;BME280;73152;52.198;5.422;2023-11-22T05:21:26;102850.84;;;20.27;49.79
17438;BME280;73152;52.198;5.422;2023-11-22T05:23:55;102854.56;;;20.26;49.59
17438;BME280;73152;52.198;5.422;2023-11-22T05:26:23;102846.47;;;20.26;49.84
17438;BME280;73152;52.198;5.422;2023-11-22T05:28:55;102841.22;;;20.24;49.44
17438;BME280;73152;52.198;5.422;2023-11-22T05:31:24;102834.28;;;20.22;49.53
17438;BME280;73152;52.198;5.422;2023-11-22T05:33:53;102849.16;;;20.26;49.79
17438;BME280;73152;52.198;5.422;2023-11-22T05:36:22;102846.47;;;20.26;49.76
17438;BME280;73152;52.198;5.422;2023-11-22T05:38:50;102850.00;;;20.26;49.79
17438;BME280;73152;52.198;5.422;2023-11-22T05:41:19;102858.22;;;20.25;49.62
17438;BME280;73152;52.198;5.422;2023-11-22T05:43:49;102862.75;;;20.24;49.48
17438;BME280;73152;52.198;5.422;2023-11-22T05:46:22;102862.75;;;20.24;49.52
17438;BME280;73152;52.198;5.422;2023-11-22T05:48:51;102872.69;;;20.24;49.59
17438;BME280;73152;52.198;5.422;2023-11-22T05:51:21;102868.16;;;20.24;49.42
17438;BME280;73152;52.198;5.422;2023-11-22T05:53:50;102861.91;;;20.24;49.52
17438;BME280;73152;52.198;5.422;2023-11-22T05:56:19;102868.31;;;20.23;49.67
17438;BME280;73152;52.198;5.422;2023-11-22T05:58:48;102869.97;;;20.24;49.36
17438;BME280;73152;52.198;5.422;2023-11-22T06:01:16;102862.75;;;20.24;49.55
17438;BME280;73152;52.198;5.422;2023-11-22T06:03:48;102868.16;;;20.24;49.51
17438;BME280;73152;52.198;5.422;2023-11-22T06:06:17;102869.16;;;20.23;49.60
17438;BME280;73152;52.198;5.422;2023-11-22T06:08:47;102881.75;;;20.23;49.54
17438;BME280;73152;52.198;5.422;2023-11-22T06:11:16;102869.28;;;20.22;49.39
17438;BME280;73152;52.198;5.422;2023-11-22T06:13:45;102867.28;;;20.24;49.63
17438;BME280;73152;52.198;5.422;2023-11-22T06:16:14;102867.28;;;20.24;49.46
17438;BME280;73152;52.198;5.422;2023-11-22T06:18:43;102873.78;;;20.21;49.47
17438;BME280;73152;52.198;5.422;2023-11-22T06:21:15;102873.69;;;20.23;49.38
17438;BME280;73152;52.198;5.422;2023-11-22T06:23:44;102879.16;;;20.21;49.42
17438;BME280;73152;52.198;5.422;2023-11-22T06:26:13;102894.38;;;20.22;49.64
17438;BME280;73152;52.198;5.422;2023-11-22T06:28:42;102897.19;;;20.21;49.48
17438;BME280;73152;52.198;5.422;2023-11-22T06:31:14;102897.06;;;20.22;49.77
17438;BME280;73152;52.198;5.422;2023-11-22T06:33:43;102897.91;;;20.23;49.79
17438;BME280;73152;52.198;5.422;2023-11-22T06:36:11;102895.31;;;20.21;49.58
17438;BME280;73152;52.198;5.422;2023-11-22T06:38:43;102888.97;;;20.22;49.90
17438;BME280;73152;52.198;5.422;2023-11-22T06:41:12;102886.28;;;20.22;49.63
17438;BME280;73152;52.198;5.422;2023-11-22T06:43:43;102882.63;;;20.23;49.97
17438;BME280;73152;52.198;5.422;2023-11-22T06:46:11;102880.06;;;20.22;50.00
17438;BME280;73152;52.198;5.422;2023-11-22T06:48:42;102869.41;;;20.20;49.90
17438;BME280;73152;52.198;5.422;2023-11-22T06:51:14;102866.72;;;20.20;50.15
17438;BME280;73152;52.198;5.422;2023-11-22T06:53:46;102858.63;;;20.20;50.09
17438;BME280;73152;52.198;5.422;2023-11-22T06:56:17;102861.31;;;20.20;50.35
17438;BME280;73152;52.198;5.422;2023-11-22T06:58:46;102856.78;;;20.21;50.19
17438;BME280;73152;52.198;5.422;2023-11-22T07:01:15;102864.88;;;20.21;49.98
17438;BME280;73152;52.198;5.422;2023-11-22T07:03:43;102865.69;;;20.21;50.16
17438;BME280;73152;52.198;5.422;2023-11-22T07:06:12;102874.78;;;20.20;50.04
17438;BME280;73152;52.198;5.422;2023-11-22T07:08:41;102878.34;;;20.21;50.20
17438;BME280;73152;52.198;5.422;2023-11-22T07:11:22;102891.78;;;20.21;50.41
17438;BME280;73152;52.198;5.422;2023-11-22T07:13:51;102889.94;;;20.21;50.42
17438;BME280;73152;52.198;5.422;2023-11-22T07:16:20;102881.16;;;20.19;50.08
17438;BME280;73152;52.198;5.422;2023-11-22T07:18:50;102882.88;;;20.20;50.10
17438;BME280;73152;52.198;5.422;2023-11-22T07:21:19;102885.56;;;20.20;50.37
17438;BME280;73152;52.198;5.422;2023-11-22T07:23:49;102886.41;;;20.21;50.36
17438;BME280;73152;52.198;5.422;2023-11-22T07:26:20;102885.44;;;20.22;49.94
17438;BME280;73152;52.198;5.422;2023-11-22T07:28:49;102885.56;;;20.20;50.32
17438;BME280;73152;52.198;5.422;2023-11-22T07:31:18;102887.25;;;20.21;50.19
17438;BME280;73152;52.198;5.422;2023-11-22T07:33:48;102889.94;;;20.21;49.86
17438;BME280;73152;52.198;5.422;2023-11-22T07:36:17;102881.16;;;20.19;49.79
17438;BME280;73152;52.198;5.422;2023-11-22T07:38:46;102899.75;;;20.22;50.15
17438;BME280;73152;52.198;5.422;2023-11-22T07:41:22;102897.75;;;20.24;50.17
17438;BME280;73152;52.198;5.422;2023-11-22T07:43:51;102893.38;;;20.23;50.04
17438;BME280;73152;52.198;5.422;2023-11-22T07:46:20;102897.06;;;20.22;49.77
17438;BME280;73152;52.198;5.422;2023-11-22T07:48:48;102893.38;;;20.23;50.04
17438;BME280;73152;52.198;5.422;2023-11-22T07:51:17;102893.38;;;20.23;50.05
17438;BME280;73152;52.198;5.422;2023-11-22T07:53:46;102893.38;;;20.23;49.65
17438;BME280;73152;52.198;5.422;2023-11-22T07:56:15;102900.47;;;20.24;50.02
17438;BME280;73152;52.198;5.422;2023-11-22T07:58:46;102901.31;;;20.25;49.94
17438;BME280;73152;52.198;5.422;2023-11-22T08:01:15;102914.94;;;20.23;49.59
17438;BME280;73152;52.198;5.422;2023-11-22T08:03:44;102934.47;;;20.25;49.79
17438;BME280;73152;52.198;5.422;2023-11-22T08:06:13;102930.78;;;20.26;49.87
17438;BME280;73152;52.198;5.422;2023-11-22T08:08:42;102936.16;;;20.26;49.50
17438;BME280;73152;52.198;5.422;2023-11-22T08:11:12;102953.19;;;20.27;49.50
17438;BME280;73152;52.198;5.422;2023-11-22T08:13:46;102959.44;;;20.27;49.62
17438;BME280;73152;52.198;5.422;2023-11-22T08:16:16;102955.16;;;20.25;49.54
17438;BME280;73152;52.198;5.422;2023-11-22T08:18:45;102950.34;;;20.28;49.59
17438;BME280;73152;52.198;5.422;2023-11-22T08:21:14;102950.34;;;20.28;49.79
17438;BME280;73152;52.198;5.422;2023-11-22T08:23:45;102949.50;;;20.28;49.53
17438;BME280;73152;52.198;5.422;2023-11-22T08:26:14;102961.00;;;20.30;49.67
17438;BME280;73152;52.198;5.422;2023-11-22T08:28:46;102959.16;;;20.30;49.63
17438;BME280;73152;52.198;5.422;2023-11-22T08:31:15;102952.91;;;20.30;49.71
17438;BME280;73152;52.198;5.422;2023-11-22T08:33:44;102957.16;;;20.32;49.25
17438;BME280;73152;52.198;5.422;2023-11-22T08:36:12;102964.22;;;20.33;49.22
17438;BME280;73152;52.198;5.422;2023-11-22T08:38:41;102956.31;;;20.32;49.22
17438;BME280;73152;52.198;5.422;2023-11-22T08:41:10;102952.63;;;20.33;49.40
17438;BME280;73152;52.198;5.422;2023-11-22T08:43:39;102957.88;;;20.34;49.51
17438;BME280;73152;52.198;5.422;2023-11-22T08:46:11;102943.53;;;20.34;49.16
17438;BME280;73152;52.198;5.422;2023-11-22T08:48:40;102955.88;;;20.36;49.45
17438;BME280;73152;52.198;5.422;2023-11-22T08:51:09;102961.28;;;20.36;49.12
17438;BME280;73152;52.198;5.422;2023-11-22T08:53:38;102949.63;;;20.36;49.10
17438;BME280;73152;52.198;5.422;2023-11-22T08:56:10;102952.22;;;20.37;49.23
17438;BME280;73152;52.198;5.422;2023-11-22T08:58:40;102941.44;;;20.37;49.03
17438;BME280;73152;52.198;5.422;2023-11-22T09:01:11;102935.75;;;20.40;49.04
17438;BME280;73152;52.198;5.422;2023-11-22T09:03:40;102938.44;;;20.40;49.06
17438;BME280;73152;52.198;5.422;2023-11-22T09:06:09;102941.84;;;20.42;48.96
17438;BME280;73152;52.198;5.422;2023-11-22T09:08:38;102941.84;;;20.42;48.93
17438;BME280;73152;52.198;5.422;2023-11-22T09:11:07;102951.78;;;20.42;48.80
17438;BME280;73152;52.198;5.422;2023-11-22T09:13:36;102949.78;;;20.44;49.08
17438;BME280;73152;52.198;5.422;2023-11-22T09:16:07;102951.47;;;20.45;48.80
17438;BME280;73152;52.198;5.422;2023-11-22T09:18:38;102947.81;;;20.46;49.13
17438;BME280;73152;52.198;5.422;2023-11-22T09:21:09;102955.03;;;20.45;49.11
17438;BME280;73152;52.198;5.422;2023-11-22T09:23:38;102959.44;;;20.46;48.73
17438;BME280;73152;52.198;5.422;2023-11-22T09:26:07;102957.56;;;20.47;48.68
17438;BME280;73152;52.198;5.422;2023-11-22T09:28:36;102961.97;;;20.48;48.91
17438;BME280;73152;52.198;5.422;2023-11-22T09:31:06;102969.19;;;20.47;48.77
17438;BME280;73152;52.198;5.422;2023-11-22T09:33:39;102962.69;;;20.50;48.61
17438;BME280;73152;52.198;5.422;2023-11-22T09:36:09;102958.16;;;20.50;48.63
17438;BME280;73152;52.198;5.422;2023-11-22T09:38:38;102960.84;;;20.50;48.71
17438;BME280;73152;52.198;5.422;2023-11-22T09:41:07;102952.75;;;20.50;48.94
17438;BME280;73152;52.198;5.422;2023-11-22T09:43:37;102960.56;;;20.53;48.86
17438;BME280;73152;52.198;5.422;2023-11-22T09:46:09;102956.88;;;20.54;48.64
17438;BME280;73152;52.198;5.422;2023-11-22T09:48:42;102964.09;;;20.54;48.99
17438;BME280;73152;52.198;5.422;2023-11-22T09:51:22;102963.97;;;20.55;48.73
17438;BME280;73152;52.198;5.422;2023-11-22T09:53:56;102960.41;;;20.55;48.79
17438;BME280;73152;52.198;5.422;2023-11-22T09:56:27;102962.94;;;20.56;49.08
17438;BME280;73152;52.198;5.422;2023-11-22T09:59:00;102963.97;;;20.55;49.13
17438;BME280;73152;52.198;5.422;2023-11-22T10:01:29;102955.72;;;20.57;49.00
17438;BME280;73152;52.198;5.422;2023-11-22T10:04:05;102947.50;;;20.58;48.97
17438;BME280;73152;52.198;5.422;2023-11-22T10:06:34;102941.28;;;20.58;48.77
17438;BME280;73152;52.198;5.422;2023-11-22T10:09:04;102933.19;;;20.58;48.93
17438;BME280;73152;52.198;5.422;2023-11-22T10:11:35;102935.88;;;20.58;48.86
17438;BME280;73152;52.198;5.422;2023-11-22T10:14:09;102931.31;;;20.58;49.03
17438;BME280;73152;52.198;5.422;2023-11-22T10:16:37;102939.28;;;20.60;48.79
17438;BME280;73152;52.198;5.422;2023-11-22T10:19:10;102947.50;;;20.58;49.11
17438;BME280;73152;52.198;5.422;2023-11-22T10:21:39;102941.13;;;20.59;49.12
17438;BME280;73152;52.198;5.422;2023-11-22T10:24:08;102938.28;;;20.61;48.80
17438;BME280;73152;52.198;5.422;2023-11-22T10:26:37;102932.88;;;20.61;48.71
17438;BME280;73152;52.198;5.422;2023-11-22T10:29:06;102940.84;;;20.62;48.83
17438;BME280;73152;52.198;5.422;2023-11-22T10:31:35;102934.44;;;20.63;48.65
17438;BME280;73152;52.198;5.422;2023-11-22T10:34:10;102932.44;;;20.65;48.65
17438;BME280;73152;52.198;5.422;2023-11-22T10:36:40;102929.63;;;20.67;48.64
17438;BME280;73152;52.198;5.422;2023-11-22T10:39:09;102922.41;;;20.67;48.91
17438;BME280;73152;52.198;5.422;2023-11-22T10:41:42;102920.53;;;20.68;48.67
17438;BME280;73152;52.198;5.422;2023-11-22T10:44:11;102913.03;;;20.71;48.78
17438;BME280;73152;52.198;5.422;2023-11-22T10:46:41;102899.56;;;20.71;48.41
17438;BME280;73152;52.198;5.422;2023-11-22T10:49:12;102907.47;;;20.73;48.67
17438;BME280;73152;52.198;5.422;2023-11-22T10:51:44;102901.13;;;20.74;48.60
17438;BME280;73152;52.198;5.422;2023-11-22T10:54:17;102894.44;;;20.68;48.53
17438;BME280;73152;52.198;5.422;2023-11-22T10:56:53;102898.59;;;20.53;49.15
17438;BME280;73152;52.198;5.422;2023-11-22T10:59:28;102906.38;;;20.47;49.47
17438;BME280;73152;52.198;5.422;2023-11-22T11:02:01;102903.13;;;20.53;49.23
17438;BME280;73152;52.198;5.422;2023-11-22T11:04:44;102900.28;;;20.54;49.51
17438;BME280;73152;52.198;5.422;2023-11-22T11:07:21;102889.38;;;20.56;49.68
17438;BME280;73152;52.198;5.422;2023-11-22T11:09:50;102876.63;;;20.58;49.56
17438;BME280;73152;52.198;5.422;2023-11-22T11:12:20;102854.47;;;20.64;49.17
17438;BME280;73152;52.198;5.422;2023-11-22T11:14:50;102854.47;;;20.64;49.76
17438;BME280;73152;52.198;5.422;2023-11-22T11:17:20;102846.22;;;20.65;49.49
17438;BME280;73152;52.198;5.422;2023-11-22T11:19:52;102847.41;;;20.63;49.71
17438;BME280;73152;52.198;5.422;2023-11-22T11:22:22;102835.75;;;20.62;49.50
17438;BME280;73152;52.198;5.422;2023-11-22T11:25:01;102821.84;;;20.67;49.49
17438;BME280;73152;52.198;5.422;2023-11-22T11:27:34;102832.59;;;20.76;49.57
17438;BME280;73152;52.198;5.422;2023-11-22T11:30:40;102825.63;;;20.84;49.27
17438;BME280;73152;52.198;5.422;2023-11-22T11:33:09;102813.69;;;20.86;49.25
17438;BME280;73152;52.198;5.422;2023-11-22T11:35:43;102802.75;;;20.88;49.21
17438;BME280;73152;52.198;5.422;2023-11-22T11:38:15;102798.22;;;20.88;48.82
17438;BME280;73152;52.198;5.422;2023-11-22T11:40:47;102801.63;;;20.90;48.82
17438;BME280;73152;52.198;5.422;2023-11-22T11:43:21;102796.06;;;20.92;48.79
17438;BME280;73152;52.198;5.422;2023-11-22T11:45:50;102802.16;;;20.94;48.54
17438;BME280;73152;52.198;5.422;2023-11-22T11:48:22;102802.03;;;20.95;48.52
17438;BME280;73152;52.198;5.422;2023-11-22T11:50:53;102803.84;;;20.95;48.70
17438;BME280;73152;52.198;5.422;2023-11-22T11:53:22;102802.84;;;20.96;48.40
17438;BME280;73152;52.198;5.422;2023-11-22T11:55:52;102802.03;;;20.95;48.31
17438;BME280;73152;52.198;5.422;2023-11-22T11:58:22;102796.47;;;20.97;48.61
17438;BME280;73152;52.198;5.422;2023-11-22T12:00:51;102796.75;;;20.94;48.47
17438;BME280;73152;52.198;5.422;2023-11-22T12:03:21;102796.47;;;20.97;48.20
17438;BME280;73152;52.198;5.422;2023-11-22T12:05:52;102799.00;;;20.98;48.50
17438;BME280;73152;52.198;5.422;2023-11-22T12:08:22;102783.00;;;20.97;48.38
17438;BME280;73152;52.198;5.422;2023-11-22T12:10:56;102776.63;;;20.98;48.08
17438;BME280;73152;52.198;5.422;2023-11-22T12:13:25;102778.28;;;20.99;48.01
17438;BME280;73152;52.198;5.422;2023-11-22T12:15:54;102789.78;;;21.01;48.35
17438;BME280;73152;52.198;5.422;2023-11-22T12:18:23;102786.78;;;21.04;48.18
17438;BME280;73152;52.198;5.422;2023-11-22T12:20:59;102784.09;;;21.04;47.98
17438;BME280;73152;52.198;5.422;2023-11-22T12:23:28;102773.75;;;20.99;48.06
17438;BME280;73152;52.198;5.422;2023-11-22T12:25:59;102780.63;;;20.84;48.70
17438;BME280;73152;52.198;5.422;2023-11-22T12:28:30;102766.16;;;20.85;48.62
17438;BME280;73152;52.198;5.422;2023-11-22T12:31:07;102773.34;;;20.94;47.75
17438;BME280;73152;52.198;5.422;2023-11-22T12:33:38;102759.06;;;20.84;48.33
17438;BME280;73152;52.198;5.422;2023-11-22T12:36:11;102764.47;;;20.84;48.64
17438;BME280;73152;52.198;5.422;2023-11-22T12:38:42;102775.56;;;20.81;48.89
17438;BME280;73152;52.198;5.422;2023-11-22T12:41:11;102759.22;;;20.83;48.54
17438;BME280;73152;52.198;5.422;2023-11-22T12:43:43;102755.56;;;20.84;48.57
17438;BME280;73152;52.198;5.422;2023-11-22T12:46:13;102731.47;;;20.72;49.01
17438;BME280;73152;52.198;5.422;2023-11-22T12:48:43;102751.16;;;20.83;49.18
17438;BME280;73152;52.198;5.422;2023-11-22T12:51:18;102743.06;;;20.83;48.69
17438;BME280;73152;52.198;5.422;2023-11-22T12:53:52;102738.66;;;20.82;48.91
17438;BME280;73152;52.198;5.422;2023-11-22T12:56:22;102736.34;;;20.87;49.05
17438;BME280;73152;52.198;5.422;2023-11-22T12:58:54;102737.06;;;20.89;48.66
17438;BME280;73152;52.198;5.422;2023-11-22T13:01:22;102728.16;;;20.88;48.83
17438;BME280;73152;52.198;5.422;2023-11-22T13:03:52;102723.28;;;20.92;48.76
17438;BME280;73152;52.198;5.422;2023-11-22T13:06:23;102712.78;;;20.89;49.00